createdAt,value
2018-08-04T00:00:00.422Z,0
2018-08-04T00:01:10.620Z,0
2018-08-04T00:02:20.897Z,0
2018-08-04T00:03:31.205Z,0
2018-08-04T00:04:41.337Z,0
2018-08-04T00:05:51.503Z,0
2018-08-04T00:07:01.642Z,0
2018-08-04T00:08:11.800Z,0
2018-08-04T00:09:22.943Z,0
2018-08-04T00:10:33.081Z,0
2018-08-04T00:11:43.285Z,0
2018-08-04T00:12:53.530Z,0
2018-08-04T00:14:03.512Z,0
2018-08-04T00:15:13.380Z,0
2018-08-04T00:16:23.277Z,0
2018-08-04T00:17:33.226Z,0
2018-08-04T00:18:43.416Z,0
2018-08-04T00:19:53.552Z,0
2018-08-04T00:21:03.710Z,0
2018-08-04T00:22:13.830Z,0
2018-08-04T00:23:24.018Z,0
2018-08-04T00:24:34.177Z,0
2018-08-04T00:25:44.432Z,0
2018-08-04T00:26:54.590Z,0
2018-08-04T00:28:04.805Z,0
2018-08-04T00:29:15.042Z,0
2018-08-04T00:30:25.288Z,0
2018-08-04T00:31:35.158Z,0
2018-08-04T00:32:45.345Z,0
2018-08-04T00:33:55.499Z,0
2018-08-04T00:35:05.566Z,0
2018-08-04T00:36:15.700Z,0
2018-08-04T00:37:25.826Z,0
2018-08-04T00:38:36.070Z,0
2018-08-04T00:39:46.248Z,0
2018-08-04T00:40:56.190Z,0
2018-08-04T00:42:07.037Z,0
2018-08-04T00:43:17.200Z,0
2018-08-04T00:44:28.562Z,0
2018-08-04T00:45:38.724Z,0
2018-08-04T00:46:48.854Z,0
2018-08-04T00:47:59.126Z,0
2018-08-04T00:49:09.321Z,0
2018-08-04T00:50:19.526Z,0
2018-08-04T00:51:29.864Z,0
2018-08-04T00:52:40.067Z,0
2018-08-04T00:53:50.288Z,0
2018-08-04T00:55:00.447Z,0
2018-08-04T00:56:10.628Z,0
2018-08-04T00:57:20.874Z,0
2018-08-04T00:58:31.139Z,0
2018-08-04T00:59:41.317Z,0
2018-08-04T01:00:51.622Z,0
2018-08-04T01:02:01.483Z,0
2018-08-04T01:03:11.628Z,0
2018-08-04T01:04:21.764Z,0
2018-08-04T01:05:31.895Z,0
2018-08-04T01:06:42.166Z,0
2018-08-04T01:07:52.364Z,0
2018-08-04T01:09:02.609Z,0
2018-08-04T01:10:12.851Z,0
2018-08-04T01:11:22.619Z,0
2018-08-04T01:12:33.468Z,0
2018-08-04T01:13:44.735Z,0
2018-08-04T01:14:55.987Z,0
2018-08-04T01:16:06.476Z,0
2018-08-04T01:17:16.687Z,0
2018-08-04T01:18:26.871Z,0
2018-08-04T01:19:36.545Z,0
2018-08-04T01:20:46.671Z,0
2018-08-04T01:21:56.811Z,0
2018-08-04T01:23:06.944Z,0
2018-08-04T01:24:17.140Z,0
2018-08-04T01:25:27.408Z,0
2018-08-04T01:26:38.263Z,0
2018-08-04T01:27:48.400Z,0
2018-08-04T01:28:58.049Z,0
2018-08-04T01:30:08.230Z,0
2018-08-04T01:31:18.371Z,0
2018-08-04T01:32:28.572Z,0
2018-08-04T01:33:38.780Z,0
2018-08-04T01:34:48.952Z,0
2018-08-04T01:35:59.178Z,0
2018-08-04T01:37:09.445Z,0
2018-08-04T01:38:19.604Z,0
2018-08-04T01:39:29.775Z,0
2018-08-04T01:40:39.904Z,0
2018-08-04T01:41:50.042Z,0
2018-08-04T01:43:00.191Z,0
2018-08-04T01:44:10.416Z,0
2018-08-04T01:45:20.580Z,0
2018-08-04T01:46:30.785Z,0
2018-08-04T01:47:40.923Z,0
2018-08-04T01:48:51.088Z,0
2018-08-04T01:50:01.275Z,0
2018-08-04T01:51:11.482Z,0
2018-08-04T01:52:21.369Z,0
2018-08-04T01:53:31.616Z,0
2018-08-04T01:54:41.869Z,0
2018-08-04T01:55:52.111Z,0
2018-08-04T01:57:02.244Z,0
2018-08-04T01:58:12.457Z,0
2018-08-04T01:59:22.539Z,0
2018-08-04T02:00:32.704Z,0
2018-08-04T02:01:43.027Z,0
2018-08-04T02:02:53.202Z,0
2018-08-04T02:04:03.333Z,0
2018-08-04T02:05:14.187Z,0
2018-08-04T02:06:24.325Z,0
2018-08-04T02:07:34.590Z,0
2018-08-04T02:08:45.391Z,0
2018-08-04T02:09:55.585Z,0
2018-08-04T02:11:05.727Z,0
2018-08-04T02:12:15.845Z,0
2018-08-04T02:13:25.669Z,0
2018-08-04T02:14:35.795Z,0
2018-08-04T02:15:45.976Z,0
2018-08-04T02:16:56.117Z,0
2018-08-04T02:18:06.349Z,0
2018-08-04T02:19:15.969Z,0
2018-08-04T02:20:26.103Z,0
2018-08-04T02:21:35.956Z,0
2018-08-04T02:22:46.226Z,0
2018-08-04T02:23:56.431Z,0
2018-08-04T02:25:06.772Z,0
2018-08-04T02:26:16.961Z,0
2018-08-04T02:27:27.133Z,0
2018-08-04T02:28:37.262Z,0
2018-08-04T02:29:47.404Z,0
2018-08-04T02:30:57.318Z,0
2018-08-04T02:32:07.466Z,0
2018-08-04T02:33:17.612Z,0
2018-08-04T02:34:27.929Z,0
2018-08-04T02:35:38.064Z,0
2018-08-04T02:36:47.931Z,0
2018-08-04T02:37:58.178Z,0
2018-08-04T02:39:08.356Z,0
2018-08-04T02:40:18.544Z,0
2018-08-04T02:41:28.061Z,0
2018-08-04T02:42:38.186Z,0
2018-08-04T02:43:48.356Z,0
2018-08-04T02:44:58.519Z,0
2018-08-04T02:46:08.388Z,0
2018-08-04T02:47:18.154Z,0
2018-08-04T02:48:28.274Z,0
2018-08-04T02:49:38.156Z,0
2018-08-04T02:50:48.294Z,0
2018-08-04T02:51:58.103Z,0
2018-08-04T02:53:09.023Z,0
2018-08-04T02:54:19.179Z,0
2018-08-04T02:55:29.376Z,0
2018-08-04T02:56:39.629Z,0
2018-08-04T02:57:50.548Z,0
2018-08-04T02:59:00.674Z,0
2018-08-04T03:00:10.872Z,0
2018-08-04T03:01:21.056Z,0
2018-08-04T03:02:31.220Z,0
2018-08-04T03:03:41.408Z,0
2018-08-04T03:04:51.542Z,0
2018-08-04T03:06:01.447Z,0
2018-08-04T03:07:11.578Z,0
2018-08-04T03:08:21.803Z,0
2018-08-04T03:09:32.061Z,0
2018-08-04T03:10:42.030Z,0
2018-08-04T03:11:52.151Z,0
2018-08-04T03:13:02.280Z,0
2018-08-04T03:14:12.494Z,0
2018-08-04T03:15:22.755Z,0
2018-08-04T03:16:32.980Z,0
2018-08-04T03:17:43.155Z,0
2018-08-04T03:18:53.381Z,0
2018-08-04T03:20:03.515Z,0
2018-08-04T03:21:13.445Z,0
2018-08-04T03:22:23.418Z,0
2018-08-04T03:23:33.559Z,0
2018-08-04T03:24:43.714Z,0
2018-08-04T03:25:53.610Z,0
2018-08-04T03:27:03.782Z,0
2018-08-04T03:28:14.888Z,0
2018-08-04T03:29:25.039Z,0
2018-08-04T03:30:35.180Z,0
2018-08-04T03:31:45.144Z,0
2018-08-04T03:32:55.274Z,0
2018-08-04T03:34:05.666Z,0
2018-08-04T03:35:15.286Z,0
2018-08-04T03:36:25.406Z,0
2018-08-04T03:37:35.583Z,5
2018-08-04T03:38:45.733Z,5
2018-08-04T03:39:55.353Z,5
2018-08-04T03:41:05.514Z,5
2018-08-04T03:42:15.645Z,5
2018-08-04T03:43:25.793Z,5
2018-08-04T03:44:35.676Z,5
2018-08-04T03:45:45.836Z,5
2018-08-04T03:46:55.703Z,5
2018-08-04T03:48:05.491Z,10
2018-08-04T03:49:15.745Z,10
2018-08-04T03:50:25.942Z,10
2018-08-04T03:51:36.352Z,10
2018-08-04T03:52:46.518Z,10
2018-08-04T03:53:56.709Z,10
2018-08-04T03:55:06.913Z,10
2018-08-04T03:56:17.083Z,15
2018-08-04T03:57:27.005Z,15
2018-08-04T03:58:37.124Z,15
2018-08-04T03:59:47.548Z,15
2018-08-04T04:00:57.685Z,20
2018-08-04T04:02:08.037Z,20
2018-08-04T04:03:18.165Z,20
2018-08-04T04:04:28.293Z,20
2018-08-04T04:05:38.428Z,20
2018-08-04T04:06:48.533Z,20
2018-08-04T04:07:58.642Z,25
2018-08-04T04:09:08.662Z,25
2018-08-04T04:10:18.890Z,25
2018-08-04T04:11:29.068Z,25
2018-08-04T04:12:39.227Z,25
2018-08-04T04:13:49.377Z,30
2018-08-04T04:14:59.532Z,30
2018-08-04T04:16:09.681Z,30
2018-08-04T04:17:19.812Z,30
2018-08-04T04:18:30.188Z,35
2018-08-04T04:19:40.081Z,35
2018-08-04T04:20:50.215Z,35
2018-08-04T04:22:00.340Z,35
2018-08-04T04:23:10.364Z,40
2018-08-04T04:24:20.558Z,40
2018-08-04T04:25:30.789Z,40
2018-08-04T04:26:40.668Z,40
2018-08-04T04:27:50.821Z,45
2018-08-04T04:29:00.961Z,40
2018-08-04T04:30:11.121Z,40
2018-08-04T04:31:21.298Z,40
2018-08-04T04:32:31.546Z,40
2018-08-04T04:33:41.780Z,40
2018-08-04T04:34:51.964Z,45
2018-08-04T04:36:02.100Z,45
2018-08-04T04:37:12.262Z,45
2018-08-04T04:38:23.649Z,45
2018-08-04T04:39:33.819Z,50
2018-08-04T04:40:43.983Z,60
2018-08-04T04:41:53.993Z,65
2018-08-04T04:43:04.132Z,70
2018-08-04T04:44:14.069Z,75
2018-08-04T04:45:24.187Z,85
2018-08-04T04:46:34.308Z,95
2018-08-04T04:47:44.427Z,100
2018-08-04T04:48:54.299Z,105
2018-08-04T04:50:04.157Z,110
2018-08-04T04:51:13.957Z,105
2018-08-04T04:52:24.122Z,105
2018-08-04T04:53:34.305Z,105
2018-08-04T04:54:44.447Z,105
2018-08-04T04:55:54.597Z,105
2018-08-04T04:57:04.962Z,110
2018-08-04T04:58:14.827Z,115
2018-08-04T04:59:24.961Z,120
2018-08-04T05:00:35.081Z,120
2018-08-04T05:01:45.006Z,115
2018-08-04T05:02:55.157Z,105
2018-08-04T05:04:05.294Z,95
2018-08-04T05:05:15.437Z,90
2018-08-04T05:06:25.669Z,90
2018-08-04T05:07:35.381Z,90
2018-08-04T05:08:45.715Z,90
2018-08-04T05:09:55.985Z,90
2018-08-04T05:11:06.130Z,85
2018-08-04T05:12:16.354Z,80
2018-08-04T05:13:26.813Z,80
2018-08-04T05:14:37.143Z,80
2018-08-04T05:15:47.300Z,75
2018-08-04T05:16:57.444Z,75
2018-08-04T05:18:07.624Z,70
2018-08-04T05:19:17.814Z,75
2018-08-04T05:20:27.930Z,75
2018-08-04T05:21:38.293Z,75
2018-08-04T05:22:48.658Z,75
2018-08-04T05:23:58.942Z,75
2018-08-04T05:25:08.830Z,75
2018-08-04T05:26:18.741Z,80
2018-08-04T05:27:28.949Z,80
2018-08-04T05:28:38.581Z,85
2018-08-04T05:29:48.445Z,85
2018-08-04T05:30:58.566Z,90
2018-08-04T05:32:09.244Z,90
2018-08-04T05:33:20.339Z,95
2018-08-04T05:34:30.467Z,95
2018-08-04T05:35:40.590Z,95
2018-08-04T05:36:50.926Z,100
2018-08-04T05:38:01.103Z,105
2018-08-04T05:39:11.401Z,110
2018-08-04T05:40:21.556Z,120
2018-08-04T05:41:31.695Z,120
2018-08-04T05:42:41.656Z,125
2018-08-04T05:43:52.155Z,120
2018-08-04T05:45:02.806Z,120
2018-08-04T05:46:12.950Z,120
2018-08-04T05:47:23.392Z,120
2018-08-04T05:48:33.530Z,120
2018-08-04T05:49:43.513Z,120
2018-08-04T05:50:53.706Z,120
2018-08-04T05:52:03.491Z,120
2018-08-04T05:53:13.266Z,115
2018-08-04T05:54:23.632Z,120
2018-08-04T05:55:33.772Z,120
2018-08-04T05:56:43.913Z,120
2018-08-04T05:57:54.158Z,135
2018-08-04T05:59:04.036Z,140
2018-08-04T06:00:14.254Z,140
2018-08-04T06:01:24.490Z,135
2018-08-04T06:02:34.649Z,150
2018-08-04T06:03:44.783Z,150
2018-08-04T06:04:54.928Z,150
2018-08-04T06:06:05.133Z,150
2018-08-04T06:07:15.317Z,150
2018-08-04T06:08:25.508Z,150
2018-08-04T06:09:35.648Z,150
2018-08-04T06:10:45.478Z,155
2018-08-04T06:11:55.617Z,155
2018-08-04T06:13:05.831Z,160
2018-08-04T06:14:15.967Z,160
2018-08-04T06:15:26.223Z,160
2018-08-04T06:16:36.119Z,155
2018-08-04T06:17:46.076Z,155
2018-08-04T06:18:56.212Z,155
2018-08-04T06:20:06.356Z,155
2018-08-04T06:21:16.486Z,160
2018-08-04T06:22:26.630Z,160
2018-08-04T06:23:36.781Z,160
2018-08-04T06:24:47.006Z,165
2018-08-04T06:25:57.184Z,165
2018-08-04T06:27:07.335Z,165
2018-08-04T06:28:17.803Z,165
2018-08-04T06:29:28.041Z,165
2018-08-04T06:30:38.563Z,165
2018-08-04T06:31:48.965Z,170
2018-08-04T06:32:59.170Z,175
2018-08-04T06:34:10.275Z,175
2018-08-04T06:35:20.508Z,180
2018-08-04T06:36:30.740Z,180
2018-08-04T06:37:41.020Z,185
2018-08-04T06:38:51.238Z,190
2018-08-04T06:40:01.379Z,190
2018-08-04T06:41:11.837Z,200
2018-08-04T06:42:22.007Z,200
2018-08-04T06:43:32.162Z,205
2018-08-04T06:44:42.342Z,205
2018-08-04T06:45:52.543Z,210
2018-08-04T06:47:02.714Z,210
2018-08-04T06:48:13.137Z,215
2018-08-04T06:49:23.289Z,215
2018-08-04T06:50:34.146Z,220
2018-08-04T06:51:44.270Z,215
2018-08-04T06:52:54.647Z,215
2018-08-04T06:54:05.292Z,215
2018-08-04T06:55:15.430Z,210
2018-08-04T06:56:25.642Z,210
2018-08-04T06:57:35.419Z,210
2018-08-04T06:58:45.567Z,215
2018-08-04T06:59:55.761Z,215
2018-08-04T07:01:05.633Z,215
2018-08-04T07:02:15.766Z,215
2018-08-04T07:03:25.918Z,215
2018-08-04T07:04:36.068Z,220
2018-08-04T07:05:46.220Z,220
2018-08-04T07:06:56.470Z,225
2018-08-04T07:08:06.717Z,225
2018-08-04T07:09:16.977Z,220
2018-08-04T07:10:26.943Z,225
2018-08-04T07:11:37.091Z,225
2018-08-04T07:12:47.248Z,230
2018-08-04T07:13:57.645Z,230
2018-08-04T07:15:07.782Z,230
2018-08-04T07:16:17.929Z,230
2018-08-04T07:17:28.090Z,225
2018-08-04T07:18:38.218Z,235
2018-08-04T07:19:48.400Z,240
2018-08-04T07:20:58.546Z,240
2018-08-04T07:22:08.417Z,240
2018-08-04T07:23:18.659Z,235
2018-08-04T07:24:28.924Z,235
2018-08-04T07:25:38.871Z,245
2018-08-04T07:26:49.004Z,250
2018-08-04T07:27:58.907Z,250
2018-08-04T07:29:09.603Z,255
2018-08-04T07:30:19.822Z,255
2018-08-04T07:31:29.992Z,255
2018-08-04T07:32:40.142Z,260
2018-08-04T07:33:50.280Z,260
2018-08-04T07:34:59.914Z,265
2018-08-04T07:36:10.091Z,265
2018-08-04T07:37:20.324Z,270
2018-08-04T07:38:31.596Z,275
2018-08-04T07:39:41.820Z,275
2018-08-04T07:40:52.071Z,280
2018-08-04T07:42:02.219Z,275
2018-08-04T07:43:12.370Z,275
2018-08-04T07:44:22.614Z,285
2018-08-04T07:45:32.400Z,285
2018-08-04T07:46:42.579Z,285
2018-08-04T07:47:52.723Z,285
2018-08-04T07:49:03.087Z,290
2018-08-04T07:50:13.289Z,295
2018-08-04T07:51:23.582Z,300
2018-08-04T07:52:33.743Z,310
2018-08-04T07:53:43.990Z,305
2018-08-04T07:54:54.331Z,305
2018-08-04T07:56:04.256Z,310
2018-08-04T07:57:14.411Z,310
2018-08-04T07:58:24.589Z,315
2018-08-04T07:59:35.184Z,320
2018-08-04T08:00:45.384Z,325
2018-08-04T08:01:55.525Z,335
2018-08-04T08:03:05.682Z,340
2018-08-04T08:04:15.845Z,340
2018-08-04T08:05:26.009Z,345
2018-08-04T08:06:36.384Z,350
2018-08-04T08:07:46.589Z,350
2018-08-04T08:08:56.780Z,345
2018-08-04T08:10:06.975Z,335
2018-08-04T08:11:17.875Z,345
2018-08-04T08:12:28.042Z,350
2018-08-04T08:13:38.209Z,350
2018-08-04T08:14:48.608Z,350
2018-08-04T08:15:58.397Z,350
2018-08-04T08:17:08.548Z,355
2018-08-04T08:18:18.717Z,360
2018-08-04T08:19:28.492Z,360
2018-08-04T08:20:38.628Z,365
2018-08-04T08:21:48.771Z,370
2018-08-04T08:22:59.025Z,385
2018-08-04T08:24:09.248Z,390
2018-08-04T08:25:19.465Z,400
2018-08-04T08:26:29.357Z,405
2018-08-04T08:27:39.737Z,405
2018-08-04T08:28:49.364Z,405
2018-08-04T08:29:59.509Z,425
2018-08-04T08:31:09.745Z,435
2018-08-04T08:32:19.923Z,430
2018-08-04T08:33:29.824Z,480
2018-08-04T08:34:39.954Z,530
2018-08-04T08:35:50.118Z,560
2018-08-04T08:37:00.289Z,585
2018-08-04T08:38:10.463Z,615
2018-08-04T08:39:20.251Z,650
2018-08-04T08:40:30.476Z,695
2018-08-04T08:41:40.423Z,1185
2018-08-04T08:42:50.561Z,1705
2018-08-04T08:44:00.714Z,1650
2018-08-04T08:45:10.871Z,1400
2018-08-04T08:46:21.024Z,1615
2018-08-04T08:47:31.274Z,1495
2018-08-04T08:48:41.420Z,1725
2018-08-04T08:49:52.527Z,1730
2018-08-04T08:51:02.710Z,1550
2018-08-04T08:52:12.875Z,550
2018-08-04T08:53:23.740Z,640
2018-08-04T08:54:33.995Z,560
2018-08-04T08:55:44.391Z,590
2018-08-04T08:56:54.553Z,650
2018-08-04T08:58:04.744Z,470
2018-08-04T08:59:14.942Z,525
2018-08-04T09:00:25.189Z,510
2018-08-04T09:01:35.390Z,550
2018-08-04T09:02:45.553Z,550
2018-08-04T09:03:55.870Z,475
2018-08-04T09:05:06.031Z,555
2018-08-04T09:06:16.241Z,470
2018-08-04T09:07:26.410Z,605
2018-08-04T09:08:36.817Z,715
2018-08-04T09:09:47.001Z,860
2018-08-04T09:10:57.178Z,1035
2018-08-04T09:12:07.411Z,520
2018-08-04T09:13:18.251Z,875
2018-08-04T09:14:28.479Z,975
2018-08-04T09:15:38.775Z,1235
2018-08-04T09:16:48.956Z,1380
2018-08-04T09:17:59.162Z,1690
2018-08-04T09:19:09.318Z,1650
2018-08-04T09:20:19.225Z,1705
2018-08-04T09:21:29.379Z,1605
2018-08-04T09:22:39.583Z,1280
2018-08-04T09:23:49.726Z,1190
2018-08-04T09:24:59.879Z,1145
2018-08-04T09:26:10.059Z,1175
2018-08-04T09:27:19.970Z,1280
2018-08-04T09:28:29.949Z,1415
2018-08-04T09:29:40.139Z,1340
2018-08-04T09:30:50.546Z,1310
2018-08-04T09:32:00.374Z,1405
2018-08-04T09:33:10.529Z,1410
2018-08-04T09:34:20.742Z,1370
2018-08-04T09:35:30.653Z,1010
2018-08-04T09:36:40.788Z,1385
2018-08-04T09:37:50.949Z,1495
2018-08-04T09:39:01.151Z,1330
2018-08-04T09:40:11.148Z,1400
2018-08-04T09:41:21.324Z,1365
2018-08-04T09:42:31.528Z,1120
2018-08-04T09:43:41.855Z,955
2018-08-04T09:44:52.251Z,1110
2018-08-04T09:46:02.403Z,1105
2018-08-04T09:47:12.555Z,1210
2018-08-04T09:48:22.480Z,1505
2018-08-04T09:49:32.380Z,1480
2018-08-04T09:50:42.294Z,1380
2018-08-04T09:51:52.470Z,1250
2018-08-04T09:53:02.664Z,1115
2018-08-04T09:54:12.644Z,1050
2018-08-04T09:55:22.850Z,1040
2018-08-04T09:56:33.029Z,1125
2018-08-04T09:57:43.200Z,1100
2018-08-04T09:58:53.386Z,1035
2018-08-04T10:00:03.609Z,1470
2018-08-04T10:01:13.515Z,1740
2018-08-04T10:02:23.686Z,1825
2018-08-04T10:03:34.810Z,1780
2018-08-04T10:04:44.969Z,1685
2018-08-04T10:05:55.129Z,1390
2018-08-04T10:07:05.281Z,1435
2018-08-04T10:08:15.439Z,1235
2018-08-04T10:09:25.377Z,1080
2018-08-04T10:10:35.568Z,1415
2018-08-04T10:11:45.775Z,1455
2018-08-04T10:12:55.941Z,1825
2018-08-04T10:14:05.616Z,1735
2018-08-04T10:15:15.781Z,1870
2018-08-04T10:16:25.984Z,2095
2018-08-04T10:17:35.894Z,2170
2018-08-04T10:18:46.284Z,2140
2018-08-04T10:19:56.459Z,2100
2018-08-04T10:21:06.701Z,2260
2018-08-04T10:22:16.923Z,2245
2018-08-04T10:23:26.725Z,2125
2018-08-04T10:24:36.930Z,2010
2018-08-04T10:25:46.789Z,1225
2018-08-04T10:26:56.966Z,1775
2018-08-04T10:28:07.149Z,1835
2018-08-04T10:29:17.301Z,1960
2018-08-04T10:30:27.482Z,2120
2018-08-04T10:31:37.679Z,2130
2018-08-04T10:32:48.530Z,1485
2018-08-04T10:33:58.758Z,1895
2018-08-04T10:35:08.895Z,1780
2018-08-04T10:36:19.282Z,1670
2018-08-04T10:37:29.435Z,1725
2018-08-04T10:38:39.953Z,1585
2018-08-04T10:39:49.964Z,1405
2018-08-04T10:41:00.102Z,1160
2018-08-04T10:42:10.399Z,1030
2018-08-04T10:43:20.620Z,900
2018-08-04T10:44:30.608Z,785
2018-08-04T10:45:40.813Z,790
2018-08-04T10:46:51.025Z,1100
2018-08-04T10:48:01.173Z,1325
2018-08-04T10:49:11.386Z,1415
2018-08-04T10:50:21.757Z,1585
2018-08-04T10:51:31.946Z,790
2018-08-04T10:52:42.204Z,740
2018-08-04T10:53:52.379Z,815
2018-08-04T10:55:02.541Z,1175
2018-08-04T10:56:12.481Z,1390
2018-08-04T10:57:22.713Z,780
2018-08-04T10:58:33.104Z,1045
2018-08-04T10:59:42.765Z,1005
2018-08-04T11:00:52.914Z,1070
2018-08-04T11:02:03.100Z,1480
2018-08-04T11:03:13.294Z,2030
2018-08-04T11:04:23.457Z,2255
2018-08-04T11:05:33.624Z,2000
2018-08-04T11:06:43.790Z,1975
2018-08-04T11:07:54.019Z,2290
2018-08-04T11:09:04.201Z,2220
2018-08-04T11:10:14.413Z,1490
2018-08-04T11:11:24.676Z,1335
2018-08-04T11:12:35.054Z,1290
2018-08-04T11:13:45.275Z,1775
2018-08-04T11:14:55.491Z,1710
2018-08-04T11:16:05.692Z,1750
2018-08-04T11:17:16.882Z,1645
2018-08-04T11:18:27.108Z,1420
2018-08-04T11:19:37.300Z,1330
2018-08-04T11:20:47.466Z,1260
2018-08-04T11:21:57.651Z,1130
2018-08-04T11:23:07.809Z,985
2018-08-04T11:24:18.670Z,845
2018-08-04T11:25:28.841Z,825
2018-08-04T11:26:38.767Z,790
2018-08-04T11:27:48.710Z,1005
2018-08-04T11:28:58.884Z,1030
2018-08-04T11:30:09.071Z,640
2018-08-04T11:31:19.944Z,685
2018-08-04T11:32:30.145Z,815
2018-08-04T11:33:40.410Z,1130
2018-08-04T11:34:50.579Z,1900
2018-08-04T11:36:00.878Z,2630
2018-08-04T11:37:10.798Z,2755
2018-08-04T11:38:20.950Z,2735
2018-08-04T11:39:31.123Z,2695
2018-08-04T11:40:41.328Z,2655
2018-08-04T11:41:52.470Z,2640
2018-08-04T11:43:02.677Z,2650
2018-08-04T11:44:12.939Z,2615
2018-08-04T11:45:23.252Z,2625
2018-08-04T11:46:33.451Z,2630
2018-08-04T11:47:43.635Z,2635
2018-08-04T11:48:53.540Z,2565
2018-08-04T11:50:03.689Z,2520
2018-08-04T11:51:14.856Z,2500
2018-08-04T11:52:25.019Z,2505
2018-08-04T11:53:35.186Z,2490
2018-08-04T11:54:45.378Z,2515
2018-08-04T11:55:55.574Z,2520
2018-08-04T11:57:05.819Z,2550
2018-08-04T11:58:16.101Z,2565
2018-08-04T11:59:26.269Z,2615
2018-08-04T12:00:36.503Z,2610
2018-08-04T12:01:46.793Z,2545
2018-08-04T12:02:57.661Z,2490
2018-08-04T12:04:07.839Z,2485
2018-08-04T12:05:18.112Z,2495
2018-08-04T12:06:28.387Z,2490
2018-08-04T12:07:38.686Z,2470
2018-08-04T12:08:48.858Z,2510
2018-08-04T12:09:59.075Z,2540
2018-08-04T12:11:09.486Z,2505
2018-08-04T12:12:19.885Z,2515
2018-08-04T12:13:30.058Z,2490
2018-08-04T12:14:40.223Z,2475
2018-08-04T12:15:50.136Z,2470
2018-08-04T12:17:00.323Z,2460
2018-08-04T12:18:10.454Z,2445
2018-08-04T12:19:20.537Z,2415
2018-08-04T12:20:30.452Z,2435
2018-08-04T12:21:40.620Z,2435
2018-08-04T12:22:50.572Z,2435
2018-08-04T12:24:00.761Z,2460
2018-08-04T12:25:10.988Z,2460
2018-08-04T12:26:21.309Z,2505
2018-08-04T12:27:31.494Z,2525
2018-08-04T12:28:41.784Z,2520
2018-08-04T12:29:52.029Z,2495
2018-08-04T12:31:02.295Z,2460
2018-08-04T12:32:12.511Z,2460
2018-08-04T12:33:22.689Z,2465
2018-08-04T12:34:32.933Z,2515
2018-08-04T12:35:43.095Z,2565
2018-08-04T12:36:53.281Z,2575
2018-08-04T12:38:03.511Z,2550
2018-08-04T12:39:13.513Z,2475
2018-08-04T12:40:23.691Z,2390
2018-08-04T12:41:33.659Z,2340
2018-08-04T12:42:43.827Z,2295
2018-08-04T12:43:53.776Z,2295
2018-08-04T12:45:03.952Z,2340
2018-08-04T12:46:14.193Z,2370
2018-08-04T12:47:24.081Z,2345
2018-08-04T12:48:34.250Z,2330
2018-08-04T12:49:44.456Z,2285
2018-08-04T12:50:54.648Z,2210
2018-08-04T12:52:04.877Z,2190
2018-08-04T12:53:15.030Z,2195
2018-08-04T12:54:24.664Z,2220
2018-08-04T12:55:34.895Z,2295
2018-08-04T12:56:45.175Z,2295
2018-08-04T12:57:55.333Z,2255
2018-08-04T12:59:05.558Z,2215
2018-08-04T13:00:15.967Z,2140
2018-08-04T13:01:26.796Z,2095
2018-08-04T13:02:37.148Z,2085
2018-08-04T13:03:47.379Z,2115
2018-08-04T13:04:57.676Z,2175
2018-08-04T13:06:07.688Z,2185
2018-08-04T13:07:17.676Z,2190
2018-08-04T13:08:27.608Z,2190
2018-08-04T13:09:37.768Z,2200
2018-08-04T13:10:47.943Z,2195
2018-08-04T13:11:58.310Z,2185
2018-08-04T13:13:08.520Z,2155
2018-08-04T13:14:18.455Z,2095
2018-08-04T13:15:28.688Z,2050
2018-08-04T13:16:38.926Z,2060
2018-08-04T13:17:48.875Z,2085
2018-08-04T13:18:59.037Z,2130
2018-08-04T13:20:10.226Z,2160
2018-08-04T13:21:20.454Z,2135
2018-08-04T13:22:30.659Z,2150
2018-08-04T13:23:41.813Z,2180
2018-08-04T13:24:51.981Z,2145
2018-08-04T13:26:02.164Z,2140
2018-08-04T13:27:12.377Z,2140
2018-08-04T13:28:22.305Z,2150
2018-08-04T13:29:32.528Z,2125
2018-08-04T13:30:42.738Z,2180
2018-08-04T13:31:52.967Z,2225
2018-08-04T13:33:02.871Z,2205
2018-08-04T13:34:13.086Z,2195
2018-08-04T13:35:23.249Z,2165
2018-08-04T13:36:33.421Z,2175
2018-08-04T13:37:43.417Z,2090
2018-08-04T13:38:53.774Z,2065
2018-08-04T13:40:03.953Z,2050
2018-08-04T13:41:14.146Z,2095
2018-08-04T13:42:24.378Z,2145
2018-08-04T13:43:34.589Z,2210
2018-08-04T13:44:44.427Z,2185
2018-08-04T13:45:55.561Z,2215
2018-08-04T13:47:05.746Z,2275
2018-08-04T13:48:15.970Z,2235
2018-08-04T13:49:26.206Z,2195
2018-08-04T13:50:36.434Z,2165
2018-08-04T13:51:46.662Z,2125
2018-08-04T13:52:56.761Z,2070
2018-08-04T13:54:06.989Z,2050
2018-08-04T13:55:17.196Z,2055
2018-08-04T13:56:27.501Z,2070
2018-08-04T13:57:37.710Z,2090
2018-08-04T13:58:47.872Z,2095
2018-08-04T13:59:58.283Z,2060
2018-08-04T14:01:08.193Z,1960
2018-08-04T14:02:18.401Z,1930
2018-08-04T14:03:28.574Z,1910
2018-08-04T14:04:38.539Z,1920
2018-08-04T14:05:48.862Z,1895
2018-08-04T14:06:59.099Z,350
2018-08-04T14:08:09.243Z,330
2018-08-04T14:09:20.378Z,995
2018-08-04T14:10:31.522Z,280
2018-08-04T14:11:42.714Z,320
2018-08-04T14:12:52.940Z,300
2018-08-04T14:14:03.228Z,1670
2018-08-04T14:15:13.412Z,1740
2018-08-04T14:16:23.656Z,1835
2018-08-04T14:17:34.166Z,1820
2018-08-04T14:18:44.377Z,1805
2018-08-04T14:19:54.281Z,1815
2018-08-04T14:21:04.197Z,1800
2018-08-04T14:22:14.433Z,1755
2018-08-04T14:23:24.631Z,1655
2018-08-04T14:24:34.581Z,1595
2018-08-04T14:25:44.830Z,1575
2018-08-04T14:26:54.760Z,1615
2018-08-04T14:28:05.005Z,1625
2018-08-04T14:29:15.203Z,1680
2018-08-04T14:30:25.368Z,1710
2018-08-04T14:31:35.599Z,1685
2018-08-04T14:32:45.753Z,1645
2018-08-04T14:33:55.959Z,1675
2018-08-04T14:35:06.748Z,1710
2018-08-04T14:36:16.977Z,1730
2018-08-04T14:37:27.188Z,1715
2018-08-04T14:38:37.414Z,1655
2018-08-04T14:39:47.317Z,1540
2018-08-04T14:40:57.473Z,1495
2018-08-04T14:42:07.632Z,1500
2018-08-04T14:43:17.897Z,1500
2018-08-04T14:44:28.099Z,1490
2018-08-04T14:45:38.287Z,1485
2018-08-04T14:46:48.496Z,1520
2018-08-04T14:47:59.288Z,1495
2018-08-04T14:49:09.209Z,1475
2018-08-04T14:50:19.136Z,1180
2018-08-04T14:51:29.427Z,1485
2018-08-04T14:52:39.635Z,1535
2018-08-04T14:53:49.537Z,1260
2018-08-04T14:54:59.820Z,1460
2018-08-04T14:56:10.149Z,1445
2018-08-04T14:57:20.315Z,1445
2018-08-04T14:58:30.479Z,1405
2018-08-04T14:59:40.652Z,1410
2018-08-04T15:00:50.859Z,1405
2018-08-04T15:02:01.141Z,1345
2018-08-04T15:03:11.295Z,1335
2018-08-04T15:04:21.321Z,1290
2018-08-04T15:05:31.514Z,1300
2018-08-04T15:06:41.380Z,1260
2018-08-04T15:07:51.284Z,1280
2018-08-04T15:09:01.541Z,1345
2018-08-04T15:10:12.286Z,1395
2018-08-04T15:11:22.696Z,1440
2018-08-04T15:12:32.967Z,1370
2018-08-04T15:13:43.171Z,1235
2018-08-04T15:14:53.367Z,1195
2018-08-04T15:16:03.539Z,1195
2018-08-04T15:17:13.743Z,1180
2018-08-04T15:18:24.001Z,1180
2018-08-04T15:19:33.965Z,1175
2018-08-04T15:20:44.113Z,1175
2018-08-04T15:21:53.939Z,1175
2018-08-04T15:23:03.865Z,1110
2018-08-04T15:24:13.909Z,1155
2018-08-04T15:25:24.090Z,1090
2018-08-04T15:26:34.255Z,1140
2018-08-04T15:27:44.380Z,1090
2018-08-04T15:28:54.564Z,1170
2018-08-04T15:30:04.790Z,1145
2018-08-04T15:31:15.031Z,800
2018-08-04T15:32:25.246Z,460
2018-08-04T15:33:35.411Z,390
2018-08-04T15:34:45.628Z,365
2018-08-04T15:35:55.788Z,340
2018-08-04T15:37:06.050Z,330
2018-08-04T15:38:16.229Z,250
2018-08-04T15:39:26.424Z,245
2018-08-04T15:40:36.664Z,230
2018-08-04T15:41:46.927Z,265
2018-08-04T15:42:57.095Z,280
2018-08-04T15:44:07.288Z,280
2018-08-04T15:45:17.276Z,270
2018-08-04T15:46:27.488Z,285
2018-08-04T15:47:37.420Z,305
2018-08-04T15:48:48.541Z,295
2018-08-04T15:49:58.754Z,295
2018-08-04T15:51:08.933Z,290
2018-08-04T15:52:19.096Z,290
2018-08-04T15:53:29.301Z,285
2018-08-04T15:54:39.545Z,285
2018-08-04T15:55:49.705Z,270
2018-08-04T15:56:59.860Z,260
2018-08-04T15:58:10.067Z,260
2018-08-04T15:59:20.315Z,260
2018-08-04T16:00:30.466Z,235
2018-08-04T16:01:40.688Z,235
2018-08-04T16:02:50.879Z,235
2018-08-04T16:04:01.207Z,225
2018-08-04T16:05:12.130Z,195
2018-08-04T16:06:22.071Z,160
2018-08-04T16:07:32.354Z,165
2018-08-04T16:08:42.576Z,200
2018-08-04T16:09:52.917Z,205
2018-08-04T16:11:03.120Z,205
2018-08-04T16:12:13.290Z,205